Time;durP1;ratioP1;P1;durP2;ratioP2;P2;SDS_P1;SDS_P2;PMS_P1;PMS_P2;Temp;Humidity;BMP_temperature;BMP_pressure;BME280_temperature;BME280_humidity;BME280_pressure;Samples;Min_cycle;Max_cycle;Signal;HPM_P1;HPM_P2
2021/06/14 00:01:21;;;;;;;5.70;2.00;;;20.80;63.30;;;;;;5071287;28;20085;-69
2021/06/14 00:03:46;;;;;;;4.90;2.10;;;20.80;63.50;;;;;;5070023;28;20500;-69
2021/06/14 00:06:12;;;;;;;5.82;2.30;;;20.70;63.60;;;;;;5069893;28;20036;-68
2021/06/14 00:08:41;;;;;;;3.95;1.80;;;20.80;63.60;;;;;;5071465;28;20040;-68
2021/06/14 00:11:08;;;;;;;5.05;1.70;;;20.70;63.50;;;;;;5071535;28;20024;-69
2021/06/14 00:13:34;;;;;;;7.18;1.90;;;20.70;64.30;;;;;;5071089;28;20020;-68
2021/06/14 00:16:00;;;;;;;4.78;1.95;;;20.70;63.70;;;;;;5069510;28;20028;-69
2021/06/14 00:18:27;;;;;;;9.02;2.00;;;20.70;63.90;;;;;;5070172;28;20079;-69
2021/06/14 00:20:59;;;;;;;5.35;1.95;;;20.70;63.80;;;;;;5071512;28;20032;-68
2021/06/14 00:23:27;;;;;;;6.72;2.15;;;20.70;63.90;;;;;;5071240;28;20103;-69
2021/06/14 00:25:53;;;;;;;6.07;2.20;;;20.70;63.90;;;;;;5071128;28;20127;-68
2021/06/14 00:28:19;;;;;;;6.45;1.88;;;20.70;64.10;;;;;;5071387;28;20095;-68
2021/06/14 00:30:46;;;;;;;6.32;2.03;;;20.70;64.20;;;;;;5070650;28;20457;-69
2021/06/14 00:33:14;;;;;;;6.68;2.00;;;20.70;64.10;;;;;;5070021;28;20547;-69
2021/06/14 00:35:41;;;;;;;3.90;1.95;;;20.70;64.20;;;;;;5071161;28;20033;-68
2021/06/14 00:38:08;;;;;;;5.70;2.30;;;20.60;64.30;;;;;;5069330;28;20107;-69
2021/06/14 00:40:33;;;;;;;5.32;2.00;;;20.70;64.40;;;;;;5071327;28;20028;-69
2021/06/14 00:43:00;;;;;;;10.00;2.33;;;20.60;64.20;;;;;;5070845;28;20024;-70
2021/06/14 00:45:30;;;;;;;6.70;2.33;;;20.70;64.30;;;;;;5069662;28;20504;-68
2021/06/14 00:47:57;;;;;;;4.90;1.90;;;20.60;64.30;;;;;;5069854;28;20033;-67
2021/06/14 00:50:43;;;;;;;5.70;2.10;;;20.60;64.50;;;;;;5071127;28;20044;-70
2021/06/14 00:53:21;;;;;;;5.03;2.13;;;20.60;64.50;;;;;;5071784;28;20108;-67
2021/06/14 00:55:47;;;;;;;5.07;2.03;;;20.60;64.60;;;;;;5073614;28;20025;-70
2021/06/14 00:58:14;;;;;;;6.85;2.33;;;20.60;64.70;;;;;;5074892;28;20066;-70
2021/06/14 01:00:40;;;;;;;4.63;1.90;;;20.60;64.60;;;;;;5073919;28;20174;-69
2021/06/14 01:03:06;;;;;;;6.20;2.10;;;20.60;64.70;;;;;;5074878;28;20066;-69
2021/06/14 01:05:36;;;;;;;4.40;1.75;;;20.60;64.80;;;;;;5074558;28;20040;-69
2021/06/14 01:08:02;;;;;;;4.95;2.15;;;20.60;64.90;;;;;;5073141;28;20119;-69
2021/06/14 01:10:28;;;;;;;4.53;1.85;;;20.60;64.80;;;;;;5074632;28;20123;-69
2021/06/14 01:13:06;;;;;;;4.38;2.08;;;20.50;64.90;;;;;;5074312;28;20393;-67
2021/06/14 01:15:42;;;;;;;5.28;2.17;;;20.60;65.10;;;;;;5073899;28;20029;-70
2021/06/14 01:18:11;;;;;;;6.03;1.83;;;20.50;65.30;;;;;;5074218;28;20071;-69
2021/06/14 01:20:44;;;;;;;6.35;1.90;;;20.50;65.40;;;;;;5090235;28;20035;-69
2021/06/14 01:23:41;;;;;;;4.95;1.95;;;20.50;65.50;;;;;;5074540;28;20027;-69
2021/06/14 01:26:15;;;;;;;7.68;2.53;;;20.50;65.80;;;;;;5072807;28;20039;-69
2021/06/14 01:28:41;;;;;;;5.25;2.20;;;20.50;65.70;;;;;;5074329;28;20016;-69
2021/06/14 01:31:09;;;;;;;4.78;1.83;;;20.50;65.90;;;;;;5072319;28;20493;-69
2021/06/14 01:33:36;;;;;;;6.82;2.00;;;20.50;65.90;;;;;;5089553;28;20492;-68
2021/06/14 01:36:24;;;;;;;3.72;1.75;;;20.50;66.00;;;;;;5089983;28;20024;-71
2021/06/14 01:38:51;;;;;;;7.28;2.00;;;20.50;66.20;;;;;;5073720;28;20055;-66
2021/06/14 01:41:18;;;;;;;6.88;1.95;;;20.50;66.50;;;;;;5074125;28;20025;-69
2021/06/14 01:43:46;;;;;;;5.05;2.00;;;20.50;66.30;;;;;;5073596;28;20031;-70
2021/06/14 01:46:15;;;;;;;5.47;2.05;;;20.50;66.30;;;;;;5072836;28;20024;-70
2021/06/14 01:48:43;;;;;;;5.68;2.42;;;20.50;66.30;;;;;;5072807;28;20039;-68
2021/06/14 01:51:11;;;;;;;5.53;2.10;;;20.50;66.20;;;;;;5073562;28;20390;-68
2021/06/14 01:53:38;;;;;;;6.47;2.25;;;20.40;66.20;;;;;;5073630;28;20012;-66
2021/06/14 01:56:06;;;;;;;5.32;2.00;;;20.40;66.20;;;;;;5073747;28;20586;-68
2021/06/14 01:58:33;;;;;;;6.63;2.30;;;20.40;66.30;;;;;;5072747;28;20414;-69
2021/06/14 02:01:00;;;;;;;6.90;2.05;;;20.40;66.20;;;;;;5074071;28;20440;-69
2021/06/14 02:03:28;;;;;;;4.90;2.00;;;20.40;66.20;;;;;;5071890;28;20021;-68
2021/06/14 02:05:55;;;;;;;7.03;2.55;;;20.40;66.30;;;;;;5073614;28;20623;-68
2021/06/14 02:08:22;;;;;;;6.40;2.20;;;20.40;66.30;;;;;;5073393;28;20105;-68
2021/06/14 02:10:49;;;;;;;5.63;1.95;;;20.30;66.30;;;;;;5073611;28;20023;-69
2021/06/14 02:13:17;;;;;;;5.63;1.80;;;20.40;66.30;;;;;;5055566;28;20068;-67
2021/06/14 02:15:42;;;;;;;5.13;2.03;;;20.30;66.40;;;;;;5058110;28;20029;-70
2021/06/14 02:18:10;;;;;;;6.60;2.22;;;20.30;66.40;;;;;;5072766;28;20092;-70
2021/06/14 02:20:37;;;;;;;6.10;2.03;;;20.30;66.50;;;;;;5073272;28;20366;-68
2021/06/14 02:23:02;;;;;;;5.35;2.10;;;20.30;66.40;;;;;;5073242;28;20107;-69
2021/06/14 02:25:28;;;;;;;4.20;1.67;;;20.30;66.50;;;;;;5071820;28;20119;-69
2021/06/14 02:27:53;;;;;;;4.63;1.90;;;20.30;66.50;;;;;;5073238;28;20033;-69
2021/06/14 02:30:23;;;;;;;6.07;2.20;;;20.30;66.50;;;;;;5073272;28;20036;-68
2021/06/14 02:32:50;;;;;;;7.38;2.35;;;20.30;66.50;;;;;;5073319;28;20020;-69
2021/06/14 02:35:16;;;;;;;5.60;2.10;;;20.30;66.60;;;;;;5072906;28;20020;-68
2021/06/14 02:37:48;;;;;;;5.57;2.00;;;20.30;66.60;;;;;;5072256;28;20020;-68
2021/06/14 02:40:14;;;;;;;5.88;2.20;;;20.30;66.60;;;;;;5071763;28;20085;-69
2021/06/14 02:42:43;;;;;;;5.80;1.75;;;20.30;66.70;;;;;;5072786;28;20051;-69
2021/06/14 02:45:09;;;;;;;6.07;2.00;;;20.30;66.60;;;;;;5072660;28;20082;-68
2021/06/14 02:47:36;;;;;;;4.00;1.90;;;20.30;66.80;;;;;;5072890;28;20020;-69
2021/06/14 02:50:06;;;;;;;8.52;2.88;;;20.30;66.90;;;;;;5071292;28;20119;-69
2021/06/14 02:52:34;;;;;;;5.93;2.10;;;20.20;66.80;;;;;;5072759;28;20017;-69
2021/06/14 02:55:28;;;;;;;9.35;2.70;;;20.20;67.00;;;;;;5072394;28;20017;-69
2021/06/14 02:57:57;;;;;;;5.47;2.05;;;20.20;67.10;;;;;;5070412;28;20072;-69
2021/06/14 03:00:26;;;;;;;5.78;1.80;;;20.20;66.90;;;;;;5072618;28;20389;-69
2021/06/14 03:02:57;;;;;;;5.78;2.33;;;20.20;67.10;;;;;;5070841;28;20035;-70
2021/06/14 03:05:23;;;;;;;5.10;2.10;;;20.20;67.10;;;;;;5071114;28;20055;-68
2021/06/14 03:07:49;;;;;;;5.93;1.95;;;20.20;67.10;;;;;;5072121;28;20446;-67
2021/06/14 03:10:15;;;;;;;4.82;2.00;;;20.20;67.10;;;;;;5071107;28;20052;-69
2021/06/14 03:12:41;;;;;;;4.07;1.90;;;20.20;67.20;;;;;;5072436;28;20067;-69
2021/06/14 03:15:07;;;;;;;5.25;2.08;;;20.20;67.20;;;;;;5069451;28;20044;-69
2021/06/14 03:17:34;;;;;;;6.38;2.30;;;20.20;67.30;;;;;;5072237;28;20021;-69
2021/06/14 03:20:00;;;;;;;6.50;2.10;;;20.20;67.20;;;;;;5072301;28;20089;-70
2021/06/14 03:22:26;;;;;;;5.25;2.30;;;20.20;67.30;;;;;;5072143;28;20028;-67
2021/06/14 03:24:53;;;;;;;5.68;2.10;;;20.20;67.40;;;;;;5071874;28;20071;-69
2021/06/14 03:27:19;;;;;;;4.50;1.80;;;20.20;67.30;;;;;;5072076;28;20021;-69
2021/06/14 03:29:48;;;;;;;4.20;2.00;;;20.20;67.30;;;;;;5071838;28;20033;-69
2021/06/14 03:32:14;;;;;;;6.00;2.30;;;20.20;67.30;;;;;;5072057;28;20494;-69
2021/06/14 03:34:41;;;;;;;4.80;1.98;;;20.20;67.50;;;;;;5071553;28;20394;-69
2021/06/14 03:37:07;;;;;;;7.40;2.30;;;20.20;67.50;;;;;;5070626;28;20385;-69
2021/06/14 03:39:34;;;;;;;6.10;2.17;;;20.20;67.50;;;;;;5087485;28;20024;-69
2021/06/14 03:41:59;;;;;;;6.03;2.30;;;20.20;67.60;;;;;;5071701;28;20642;-69
2021/06/14 03:44:25;;;;;;;4.57;1.90;;;20.20;67.60;;;;;;5070006;28;20082;-69
2021/06/14 03:46:51;;;;;;;4.20;2.00;;;20.10;67.50;;;;;;5071827;28;20021;-69
2021/06/14 03:49:17;;;;;;;7.07;2.35;;;20.10;67.80;;;;;;5071744;28;20496;-69
2021/06/14 03:51:42;;;;;;;4.28;2.10;;;20.10;67.80;;;;;;5071794;28;20112;-70
2021/06/14 03:54:08;;;;;;;6.20;2.17;;;20.20;67.80;;;;;;5087019;28;20047;-68
2021/06/14 03:56:35;;;;;;;5.82;2.00;;;20.20;67.80;;;;;;5070017;28;20028;-69
2021/06/14 03:59:01;;;;;;;5.85;2.30;;;20.20;67.80;;;;;;5071646;28;20401;-70
2021/06/14 04:01:28;;;;;;;4.82;1.92;;;20.20;67.80;;;;;;5064901;28;20071;-69
2021/06/14 04:04:15;;;;;;;6.70;2.10;;;20.20;68.00;;;;;;5064901;28;20028;-69
2021/06/14 04:06:39;;;;;;;6.28;2.03;;;20.20;68.00;;;;;;5068410;28;20481;-69
2021/06/14 04:09:05;;;;;;;7.45;1.80;;;20.20;68.00;;;;;;5071552;28;20049;-69
2021/06/14 04:11:31;;;;;;;4.72;2.17;;;20.20;68.00;;;;;;5069895;28;20052;-71
2021/06/14 04:13:57;;;;;;;6.22;2.40;;;20.20;68.00;;;;;;5070565;28;20539;-69
2021/06/14 04:16:22;;;;;;;6.72;2.20;;;20.20;68.10;;;;;;5065661;28;20035;-68
2021/06/14 04:18:49;;;;;;;6.05;1.73;;;20.20;68.00;;;;;;5060409;28;20395;-70
2021/06/14 04:21:15;;;;;;;6.15;2.53;;;20.20;67.90;;;;;;5062407;28;20021;-69
2021/06/14 04:23:41;;;;;;;6.32;2.40;;;20.20;68.00;;;;;;5052549;28;20044;-69
2021/06/14 04:26:08;;;;;;;6.45;2.38;;;20.30;68.10;;;;;;5056955;28;20490;-67
2021/06/14 04:28:34;;;;;;;8.30;2.38;;;20.20;68.00;;;;;;5063762;28;20095;-67
2021/06/14 04:30:59;;;;;;;8.07;2.40;;;20.30;68.10;;;;;;5067664;28;20036;-70
2021/06/14 04:33:25;;;;;;;7.18;2.40;;;20.30;68.10;;;;;;5067386;28;20082;-68
2021/06/14 04:35:51;;;;;;;6.50;2.70;;;20.30;68.20;;;;;;5064955;28;20020;-70
2021/06/14 04:38:16;;;;;;;7.97;2.55;;;20.30;68.20;;;;;;5065132;28;20036;-70
2021/06/14 04:40:42;;;;;;;13.25;2.50;;;20.30;68.20;;;;;;5063747;28;20194;-66
2021/06/14 04:43:07;;;;;;;8.07;2.17;;;20.30;68.30;;;;;;5066992;28;20029;-70
2021/06/14 04:45:33;;;;;;;6.95;2.78;;;20.30;68.50;;;;;;5067150;28;20039;-69
2021/06/14 04:47:58;;;;;;;8.43;2.95;;;20.30;68.30;;;;;;5065824;28;20090;-68
2021/06/14 04:50:24;;;;;;;6.97;3.00;;;20.30;68.10;;;;;;5068335;28;20068;-67
2021/06/14 04:52:50;;;;;;;6.25;2.53;;;20.30;68.00;;;;;;5068739;28;20079;-67
2021/06/14 04:55:15;;;;;;;8.15;2.35;;;20.30;67.90;;;;;;5068539;28;20031;-70
2021/06/14 04:57:41;;;;;;;8.48;2.85;;;20.30;67.40;;;;;;5061328;28;20557;-74
2021/06/14 05:00:08;;;;;;;7.55;3.00;;;20.40;66.80;;;;;;5057309;28;20425;-71
2021/06/14 05:02:33;;;;;;;8.98;2.90;;;20.40;66.10;;;;;;5066111;28;20436;-68
2021/06/14 05:04:59;;;;;;;10.45;3.13;;;20.40;65.90;;;;;;5053562;28;20017;-68
2021/06/14 05:07:25;;;;;;;9.05;3.47;;;20.50;65.00;;;;;;5049203;28;20115;-68
2021/06/14 05:09:53;;;;;;;9.52;3.50;;;20.50;65.30;;;;;;5049583;28;20994;-68
2021/06/14 05:12:18;;;;;;;8.50;3.15;;;20.40;64.20;;;;;;5049149;28;20021;-68
2021/06/14 05:14:44;;;;;;;8.45;3.22;;;20.40;65.60;;;;;;5047855;28;20090;-70
2021/06/14 05:17:10;;;;;;;7.95;3.30;;;20.40;65.00;;;;;;5049463;28;20024;-71
2021/06/14 05:19:35;;;;;;;9.35;3.28;;;20.40;64.90;;;;;;5049389;28;20036;-72
2021/06/14 05:22:04;;;;;;;9.25;3.20;;;20.40;64.10;;;;;;5068281;28;20389;-69
2021/06/14 05:24:29;;;;;;;8.63;3.10;;;20.40;64.00;;;;;;5068683;28;20402;-69
2021/06/14 05:26:55;;;;;;;10.82;3.55;;;20.40;63.90;;;;;;5068513;28;20051;-69
2021/06/14 05:29:20;;;;;;;9.25;3.45;;;20.40;64.20;;;;;;5068935;28;20033;-69
2021/06/14 05:31:46;;;;;;;9.95;3.40;;;20.40;63.70;;;;;;5067281;28;20429;-69
2021/06/14 05:34:11;;;;;;;10.85;3.33;;;20.50;64.20;;;;;;5058892;28;20105;-68
2021/06/14 05:36:37;;;;;;;8.13;3.42;;;20.50;64.00;;;;;;5067559;28;20135;-69
2021/06/14 05:39:03;;;;;;;9.85;3.15;;;20.50;63.80;;;;;;5067594;28;20500;-71
2021/06/14 05:41:29;;;;;;;17.63;4.10;;;20.60;63.80;;;;;;5068066;28;20504;-67
2021/06/14 05:43:54;;;;;;;11.05;3.40;;;20.70;63.10;;;;;;5066350;28;20032;-70
2021/06/14 05:46:21;;;;;;;9.27;3.60;;;20.70;63.60;;;;;;5069249;28;20492;-70
2021/06/14 05:48:46;;;;;;;8.25;3.42;;;20.80;63.40;;;;;;5068886;28;20501;-67
2021/06/14 05:51:12;;;;;;;9.35;3.60;;;20.80;62.90;;;;;;5069314;28;20029;-68
2021/06/14 05:53:37;;;;;;;9.55;3.40;;;20.90;62.70;;;;;;5068105;28;20059;-69
2021/06/14 05:56:03;;;;;;;8.63;3.70;;;21.00;62.70;;;;;;5066660;28;20093;-67
2021/06/14 05:58:29;;;;;;;8.55;3.30;;;21.00;62.40;;;;;;5048985;28;20043;-70
2021/06/14 06:00:54;;;;;;;10.80;3.35;;;21.10;61.70;;;;;;5065872;28;20086;-70
2021/06/14 06:03:20;;;;;;;8.82;3.42;;;21.20;61.80;;;;;;5056282;28;20037;-69
2021/06/14 06:05:45;;;;;;;8.15;3.30;;;21.30;61.60;;;;;;5064950;28;20124;-67
2021/06/14 06:08:11;;;;;;;9.55;3.38;;;21.30;60.90;;;;;;5065242;28;20039;-69
2021/06/14 06:10:36;;;;;;;8.07;3.20;;;21.30;61.10;;;;;;5067710;28;20036;-71
2021/06/14 06:13:02;;;;;;;10.35;3.58;;;21.30;60.90;;;;;;5068438;28;20440;-69
2021/06/14 06:15:28;;;;;;;8.70;3.45;;;21.40;61.90;;;;;;5066195;28;20082;-69
2021/06/14 06:17:53;;;;;;;7.65;3.10;;;21.50;61.00;;;;;;5066575;28;20388;-71
2021/06/14 06:20:19;;;;;;;7.57;3.63;;;21.60;60.90;;;;;;5066870;28;20039;-71
2021/06/14 06:22:45;;;;;;;8.25;3.55;;;21.70;60.50;;;;;;5068205;28;20028;-70
2021/06/14 06:25:15;;;;;;;8.40;3.10;;;21.80;60.20;;;;;;5066369;28;20505;-74
2021/06/14 06:27:41;;;;;;;12.05;3.45;;;21.90;60.00;;;;;;5066434;28;20111;-69
2021/06/14 06:30:10;;;;;;;8.20;3.45;;;21.90;60.00;;;;;;5068133;28;20430;-71
2021/06/14 06:32:35;;;;;;;10.73;3.53;;;21.90;59.60;;;;;;5065765;28;20036;-69
2021/06/14 06:35:01;;;;;;;8.07;3.45;;;22.00;59.40;;;;;;5057963;28;20055;-69
2021/06/14 06:37:27;;;;;;;9.05;3.42;;;22.00;59.40;;;;;;5054416;28;20386;-72
2021/06/14 06:39:52;;;;;;;7.70;3.47;;;22.10;59.50;;;;;;5067949;28;20020;-69
2021/06/14 06:42:18;;;;;;;9.63;3.10;;;22.20;59.30;;;;;;5065006;28;20029;-69
2021/06/14 06:44:43;;;;;;;8.32;3.10;;;22.10;59.30;;;;;;5066239;28;20123;-68
2021/06/14 06:47:09;;;;;;;7.50;3.08;;;22.20;59.00;;;;;;5065779;28;20035;-70
2021/06/14 06:49:34;;;;;;;8.98;3.20;;;22.20;59.10;;;;;;5066294;28;20032;-69
2021/06/14 06:52:00;;;;;;;6.97;3.20;;;22.20;58.90;;;;;;5065854;28;20521;-70
2021/06/14 06:54:26;;;;;;;7.43;3.58;;;22.30;58.80;;;;;;5067206;28;20063;-69
2021/06/14 06:56:53;;;;;;;8.60;3.00;;;22.30;58.60;;;;;;5067736;28;20024;-69
2021/06/14 06:59:20;;;;;;;8.45;3.28;;;22.30;58.60;;;;;;5067505;28;20020;-69
2021/06/14 07:01:46;;;;;;;6.00;2.63;;;22.40;58.50;;;;;;5066114;28;20385;-69
2021/06/14 07:04:11;;;;;;;6.78;3.30;;;22.40;58.30;;;;;;5067433;28;20027;-69
2021/06/14 07:06:38;;;;;;;6.60;3.20;;;22.50;58.30;;;;;;5067056;28;20044;-69
2021/06/14 07:09:04;;;;;;;7.03;2.70;;;22.50;58.20;;;;;;5065276;28;20370;-69
2021/06/14 07:11:31;;;;;;;9.27;2.88;;;22.50;58.50;;;;;;5065983;28;20063;-69
2021/06/14 07:13:57;;;;;;;7.10;2.97;;;22.60;58.30;;;;;;5065100;28;20443;-69
2021/06/14 07:16:24;;;;;;;7.57;3.03;;;22.60;58.10;;;;;;5066850;28;20071;-71
2021/06/14 07:18:50;;;;;;;6.65;3.00;;;22.80;58.10;;;;;;5064609;28;20016;-70
2021/06/14 07:21:16;;;;;;;7.80;2.55;;;22.80;57.80;;;;;;5062897;28;20443;-69
2021/06/14 07:23:43;;;;;;;7.00;2.63;;;22.80;57.40;;;;;;5065298;28;20115;-69
2021/06/14 07:26:08;;;;;;;6.63;3.10;;;22.80;57.50;;;;;;5066541;28;20038;-69
2021/06/14 07:28:34;;;;;;;9.30;2.90;;;22.80;57.40;;;;;;5065605;28;20025;-69
2021/06/14 07:31:01;;;;;;;8.13;2.67;;;22.90;57.20;;;;;;5064306;28;20535;-69
2021/06/14 07:33:27;;;;;;;7.45;2.95;;;22.90;57.00;;;;;;5064823;28;20046;-69
2021/06/14 07:35:53;;;;;;;7.63;3.20;;;22.90;56.70;;;;;;5047181;28;20116;-69
2021/06/14 07:38:19;;;;;;;6.53;2.92;;;23.00;56.70;;;;;;5046357;28;20479;-69
2021/06/14 07:40:45;;;;;;;8.30;3.08;;;23.00;56.50;;;;;;5046161;28;20032;-69
2021/06/14 07:43:14;;;;;;;8.63;2.88;;;23.10;56.70;;;;;;5053129;28;20563;-68
2021/06/14 07:45:41;;;;;;;7.28;2.95;;;23.20;56.50;;;;;;5064509;28;20043;-72
2021/06/14 07:48:08;;;;;;;9.43;2.78;;;23.20;56.30;;;;;;5065011;28;20024;-69
2021/06/14 07:50:33;;;;;;;7.15;2.70;;;23.30;56.10;;;;;;5066244;28;20032;-69
2021/06/14 07:52:59;;;;;;;6.28;3.10;;;23.40;55.90;;;;;;5066673;28;20020;-69
2021/06/14 07:55:26;;;;;;;7.45;2.97;;;23.40;55.90;;;;;;5066394;28;20028;-70
2021/06/14 07:57:52;;;;;;;9.20;3.10;;;23.50;55.90;;;;;;5060784;28;20024;-69
2021/06/14 08:00:18;;;;;;;8.73;2.80;;;23.50;55.80;;;;;;5066530;28;20024;-68
2021/06/14 08:02:43;;;;;;;14.23;4.95;;;23.60;55.70;;;;;;5065822;28;20031;-69
2021/06/14 08:05:11;;;;;;;33.67;15.68;;;23.60;55.60;;;;;;5064566;28;20056;-71
2021/06/14 08:07:37;;;;;;;38.78;16.67;;;23.70;55.10;;;;;;5064392;28;20036;-70
2021/06/14 08:10:05;;;;;;;30.55;15.70;;;23.70;54.90;;;;;;5066296;28;20058;-70
2021/06/14 08:12:33;;;;;;;36.38;15.40;;;23.80;55.00;;;;;;5064803;28;20059;-69
2021/06/14 08:14:59;;;;;;;30.13;13.05;;;23.80;54.90;;;;;;5065717;28;20081;-68
2021/06/14 08:17:27;;;;;;;29.42;13.40;;;23.70;54.70;;;;;;5066136;28;20024;-70
2021/06/14 08:19:57;;;;;;;23.70;11.35;;;23.80;54.30;;;;;;5066055;28;20021;-70
2021/06/14 08:25:04;;;;;;;16.95;7.28;;;23.90;53.90;;;;;;5066237;28;20032;-70
2021/06/14 08:27:37;;;;;;;14.20;6.22;;;24.00;53.80;;;;;;5066013;28;20028;-69
2021/06/14 08:30:07;;;;;;;15.27;6.60;;;24.00;52.90;;;;;;5064043;28;20090;-70
2021/06/14 08:32:34;;;;;;;13.75;4.97;;;24.00;52.80;;;;;;5064296;28;20353;-70
2021/06/14 08:34:59;;;;;;;13.20;5.30;;;24.10;52.60;;;;;;5063586;28;20131;-70
2021/06/14 08:37:25;;;;;;;11.82;4.70;;;24.10;53.00;;;;;;5071946;28;20099;-70
2021/06/14 08:39:51;;;;;;;11.50;4.65;;;24.20;52.70;;;;;;5070853;28;20032;-69
2021/06/14 08:42:17;;;;;;;10.90;4.75;;;24.20;52.00;;;;;;5052926;28;20111;-69
2021/06/14 08:44:43;;;;;;;10.82;4.13;;;24.30;52.00;;;;;;5051022;28;20639;-69
2021/06/14 08:47:09;;;;;;;9.30;3.95;;;24.30;51.60;;;;;;5067053;28;20060;-69
2021/06/14 08:49:36;;;;;;;12.40;4.60;;;24.40;51.60;;;;;;5069892;28;20401;-71
2021/06/14 08:52:02;;;;;;;9.70;3.85;;;24.40;51.80;;;;;;5071102;28;20024;-70
2021/06/14 08:54:28;;;;;;;8.02;3.50;;;24.40;51.30;;;;;;5069683;28;20023;-71
2021/06/14 08:56:55;;;;;;;8.45;3.40;;;24.40;50.80;;;;;;5071083;28;20021;-71
2021/06/14 08:59:21;;;;;;;8.98;3.33;;;24.60;50.20;;;;;;5069861;28;20410;-70
2021/06/14 09:01:46;;;;;;;8.05;3.30;;;24.60;50.70;;;;;;5069768;28;20028;-72
2021/06/14 09:04:12;;;;;;;6.85;3.00;;;24.60;50.50;;;;;;5069438;28;20527;-72
2021/06/14 09:06:38;;;;;;;7.18;3.00;;;24.60;49.90;;;;;;5070922;28;20025;-70
2021/06/14 09:09:07;;;;;;;6.90;3.00;;;24.70;49.60;;;;;;5071123;28;20020;-67
2021/06/14 09:11:34;;;;;;;7.78;2.92;;;24.70;49.80;;;;;;5067872;28;20044;-72
2021/06/14 09:14:01;;;;;;;8.10;2.80;;;24.80;50.10;;;;;;5070903;28;20024;-69
2021/06/14 09:16:31;;;;;;;7.15;3.00;;;24.80;49.70;;;;;;5074341;28;20031;-69
2021/06/14 09:18:57;;;;;;;7.30;2.80;;;24.90;49.90;;;;;;5074579;28;20024;-70
2021/06/14 09:21:26;;;;;;;6.55;2.60;;;24.80;49.40;;;;;;5073678;28;20028;-70
2021/06/14 09:23:55;;;;;;;8.82;2.67;;;24.90;49.70;;;;;;5073282;28;20038;-69
2021/06/14 09:26:25;;;;;;;6.82;2.70;;;25.00;49.10;;;;;;5073295;28;20540;-69
2021/06/14 09:28:57;;;;;;;7.05;2.85;;;25.10;49.00;;;;;;5073623;28;20047;-70
2021/06/14 09:31:26;;;;;;;5.57;2.58;;;25.10;48.90;;;;;;5073199;28;20052;-71
2021/06/14 09:33:52;;;;;;;6.40;2.90;;;25.20;49.10;;;;;;5073076;28;20016;-70
2021/06/14 09:36:20;;;;;;;6.95;2.80;;;25.20;49.00;;;;;;5071966;28;20071;-71
2021/06/14 09:38:46;;;;;;;7.78;2.88;;;25.30;48.70;;;;;;5071969;28;20512;-70
2021/06/14 09:41:15;;;;;;;6.03;2.65;;;25.40;48.40;;;;;;5073929;28;20040;-70
2021/06/14 09:43:43;;;;;;;5.45;2.72;;;25.40;48.20;;;;;;5073760;28;20760;-70
2021/06/14 09:46:28;;;;;;;7.88;3.08;;;25.40;48.60;;;;;;5074087;28;20485;-71
2021/06/14 09:48:54;;;;;;;8.05;3.22;;;25.40;47.90;;;;;;5074246;28;20594;-71
2021/06/14 09:51:20;;;;;;;5.90;2.75;;;25.60;48.40;;;;;;5072924;28;20546;-69
2021/06/14 09:53:54;;;;;;;7.13;2.50;;;25.60;47.80;;;;;;5073639;28;20020;-71
2021/06/14 09:56:35;;;;;;;6.00;2.30;;;25.60;47.50;;;;;;5072655;28;20020;-69
2021/06/14 09:59:01;;;;;;;5.88;2.45;;;25.80;47.30;;;;;;5073964;28;20032;-70
2021/06/14 10:01:28;;;;;;;5.85;2.70;;;25.80;47.70;;;;;;5073871;28;20056;-69
2021/06/14 10:03:55;;;;;;;5.28;2.40;;;25.80;46.90;;;;;;5073520;28;20025;-71
2021/06/14 10:06:32;;;;;;;8.02;2.88;;;25.90;47.30;;;;;;5072159;28;20082;-71
2021/06/14 10:08:59;;;;;;;6.35;2.75;;;26.00;46.70;;;;;;5073473;28;20111;-71
2021/06/14 10:11:32;;;;;;;6.50;2.28;;;26.00;46.70;;;;;;5073600;28;20073;-70
2021/06/14 10:14:15;;;;;;;7.30;2.50;;;26.10;46.80;;;;;;5071704;28;20029;-72
2021/06/14 10:16:42;;;;;;;6.80;2.47;;;26.10;46.30;;;;;;5073404;28;20048;-70
2021/06/14 10:19:11;;;;;;;6.60;2.80;;;26.20;46.80;;;;;;5073591;28;20020;-73
2021/06/14 10:21:39;;;;;;;7.93;2.83;;;26.20;46.00;;;;;;5073540;28;20040;-69
2021/06/14 10:24:09;;;;;;;7.18;2.63;;;26.20;46.60;;;;;;5072185;28;20035;-72
2021/06/14 10:26:37;;;;;;;8.45;2.83;;;26.30;46.60;;;;;;5071758;28;20122;-73
2021/06/14 10:29:08;;;;;;;7.43;2.70;;;26.40;46.30;;;;;;5072005;28;20031;-73
2021/06/14 10:31:37;;;;;;;13.60;3.00;;;26.40;46.30;;;;;;5064916;28;20029;-73
2021/06/14 10:34:03;;;;;;;8.15;2.85;;;26.30;46.60;;;;;;5072363;28;20025;-69
2021/06/14 10:36:29;;;;;;;7.57;2.50;;;26.40;46.60;;;;;;5069218;28;20020;-70
2021/06/14 10:38:56;;;;;;;8.02;2.45;;;26.60;46.80;;;;;;5070473;28;20031;-70
2021/06/14 10:41:23;;;;;;;9.48;2.88;;;26.60;46.20;;;;;;5088327;28;20029;-68
2021/06/14 10:43:50;;;;;;;9.85;2.90;;;26.70;46.40;;;;;;5072222;28;20105;-70
2021/06/14 10:46:19;;;;;;;6.18;2.47;;;26.80;46.60;;;;;;5072969;28;20458;-71
2021/06/14 10:48:48;;;;;;;5.32;2.42;;;26.70;46.20;;;;;;5072870;28;20036;-69
2021/06/14 10:51:20;;;;;;;5.35;2.28;;;26.70;46.80;;;;;;5072831;28;20028;-70
2021/06/14 10:53:59;;;;;;;6.25;2.30;;;26.70;47.00;;;;;;5070621;28;20517;-72
2021/06/14 10:56:25;;;;;;;5.30;2.40;;;26.60;47.00;;;;;;5072528;28;20385;-69
2021/06/14 10:58:58;;;;;;;5.97;2.33;;;26.70;46.80;;;;;;5054998;28;20031;-70
2021/06/14 11:01:36;;;;;;;4.97;2.17;;;26.70;47.10;;;;;;5052710;28;20028;-71
2021/06/14 11:04:03;;;;;;;72.82;17.45;;;26.60;47.50;;;;;;5052417;28;20025;-69
2021/06/14 11:06:31;;;;;;;36.08;11.90;;;26.70;48.40;;;;;;5069048;28;20837;-69
2021/06/14 11:09:00;;;;;;;37.50;10.93;;;26.70;48.40;;;;;;5072619;28;20043;-69
2021/06/14 11:11:26;;;;;;;40.03;12.43;;;26.60;48.30;;;;;;5071981;28;20033;-71
2021/06/14 11:13:52;;;;;;;33.50;11.50;;;26.50;48.80;;;;;;5072100;28;20025;-69
2021/06/14 11:16:18;;;;;;;29.23;9.75;;;26.50;48.80;;;;;;5072165;28;20036;-71
2021/06/14 11:18:44;;;;;;;30.77;9.43;;;26.40;48.90;;;;;;5072367;28;20020;-70
2021/06/14 11:21:18;;;;;;;20.00;7.35;;;26.30;49.30;;;;;;5072309;28;20397;-71
2021/06/14 11:23:46;;;;;;;24.50;6.85;;;26.30;49.40;;;;;;5071935;28;20032;-71
2021/06/14 11:26:23;;;;;;;20.92;6.30;;;26.00;50.10;;;;;;5070801;28;20024;-71
2021/06/14 11:28:49;;;;;;;21.52;6.13;;;25.60;51.00;;;;;;5072149;28;20024;-70
2021/06/14 11:31:25;;;;;;;16.23;5.47;;;25.10;52.20;;;;;;5070734;28;20082;-70
2021/06/14 11:33:53;;;;;;;15.18;5.50;;;24.70;53.20;;;;;;5071827;28;20055;-70
2021/06/14 11:36:21;;;;;;;15.95;4.85;;;24.40;53.90;;;;;;5068328;28;20482;-70
2021/06/14 11:38:48;;;;;;;14.75;5.05;;;24.20;54.40;;;;;;5071883;28;20032;-70
2021/06/14 11:41:26;;;;;;;12.82;4.78;;;24.10;55.40;;;;;;5070523;28;20124;-70
2021/06/14 11:44:30;;;;;;;15.68;4.63;;;24.10;55.00;;;;;;5071380;28;20029;-70
2021/06/14 11:47:14;;;;;;;8.30;3.90;;;24.00;55.20;;;;;;5071833;28;20478;-70
2021/06/14 11:49:40;;;;;;;9.95;3.65;;;24.00;55.20;;;;;;5070542;28;20477;-72
2021/06/14 11:52:35;;;;;;;9.35;3.72;;;24.00;55.20;;;;;;5071769;28;20036;-69
2021/06/14 11:55:10;;;;;;;8.32;3.38;;;24.00;54.50;;;;;;5071739;28;20020;-71
2021/06/14 11:57:38;;;;;;;11.50;4.00;;;24.00;54.90;;;;;;5070398;28;20154;-69
2021/06/14 12:00:07;;;;;;;8.93;2.90;;;23.90;55.00;;;;;;5070386;28;20020;-69
2021/06/14 12:02:32;;;;;;;5.85;2.70;;;23.90;54.90;;;;;;5071763;28;20027;-69
2021/06/14 12:05:01;;;;;;;7.68;3.10;;;23.90;54.60;;;;;;5070956;28;20028;-70
2021/06/14 12:07:27;;;;;;;6.97;2.88;;;23.80;55.30;;;;;;5086912;28;20657;-69
2021/06/14 12:09:56;;;;;;;8.25;3.03;;;23.80;54.70;;;;;;5070002;28;20020;-69
2021/06/14 12:12:21;;;;;;;7.68;3.20;;;23.80;55.40;;;;;;5071024;28;20029;-70
2021/06/14 12:14:54;;;;;;;7.70;3.17;;;23.90;55.30;;;;;;5071108;28;20100;-69
2021/06/14 12:17:31;;;;;;;8.85;3.38;;;23.80;55.90;;;;;;5070285;28;20052;-71
2021/06/14 12:19:58;;;;;;;7.53;2.88;;;23.80;55.90;;;;;;5064480;28;20020;-71
2021/06/14 12:22:24;;;;;;;7.53;2.88;;;23.80;54.80;;;;;;5071642;28;20509;-69
2021/06/14 12:24:51;;;;;;;9.18;3.13;;;23.90;55.40;;;;;;5053570;28;20116;-69
2021/06/14 12:27:18;;;;;;;7.95;2.85;;;23.90;55.40;;;;;;5051292;28;20033;-69
2021/06/14 12:29:44;;;;;;;8.52;2.88;;;23.80;55.30;;;;;;5050410;28;20385;-70
2021/06/14 12:32:15;;;;;;;8.60;2.90;;;23.80;55.10;;;;;;5051219;28;20017;-70
2021/06/14 12:34:43;;;;;;;;;;;23.90;55.90;;;;;;5051540;28;20374;-70
2021/06/14 12:37:17;;;;;;;7.63;2.80;;;23.80;55.50;;;;;;5051433;28;20519;-69
2021/06/14 12:39:55;;;;;;;8.20;2.83;;;23.80;55.70;;;;;;5050067;28;20025;-71
2021/06/14 12:42:21;;;;;;;7.22;2.70;;;23.90;55.80;;;;;;5050018;28;20037;-69
2021/06/14 12:44:59;;;;;;;6.30;2.92;;;23.90;55.20;;;;;;5050863;28;20490;-71
2021/06/14 12:47:26;;;;;;;4.80;2.30;;;23.80;54.10;;;;;;5068069;28;20029;-69
2021/06/14 12:49:52;;;;;;;5.65;2.50;;;23.80;55.40;;;;;;5068461;28;20032;-70
2021/06/14 12:52:23;;;;;;;6.97;2.63;;;23.80;56.10;;;;;;5074997;28;20031;-69